sensor_id;sensor_type;location;lat;lon;timestamp;pressure;altitude;pressure_sealevel;temperature;humidity
5238;BME280;2639;49.700;7.962;2023-06-22T03:02:55;98797.88;;;20.54;100.00
5238;BME280;2639;49.700;7.962;2023-06-22T03:03:58;98795.25;;;20.54;100.00
5238;BME280;2639;49.700;7.962;2023-06-22T03:05:01;98795.25;;;20.54;100.00
5238;BME280;2639;49.700;7.962;2023-06-22T03:06:05;98797.03;;;20.55;100.00
5238;BME280;2639;49.700;7.962;2023-06-22T03:07:07;98786.59;;;20.55;100.00
5238;BME280;2639;49.700;7.962;2023-06-22T03:08:10;98796.16;;;20.54;100.00
5238;BME280;2639;49.700;7.962;2023-06-22T03:09:12;98796.94;;;20.52;100.00
5238;BME280;2639;49.700;7.962;2023-06-22T03:10:15;98793.38;;;20.50;100.00
5238;BME280;2639;49.700;7.962;2023-06-22T03:11:18;98789.81;;;20.48;100.00
5238;BME280;2639;49.700;7.962;2023-06-22T03:12:20;98793.25;;;20.47;100.00
5238;BME280;2639;49.700;7.962;2023-06-22T03:13:27;98789.72;;;20.45;100.00
5238;BME280;2639;49.700;7.962;2023-06-22T03:14:30;98800.16;;;20.45;100.00
5238;BME280;2639;49.700;7.962;2023-06-22T03:15:31;98794.94;;;20.45;100.00
5238;BME280;2639;49.700;7.962;2023-06-22T03:16:35;98793.13;;;20.44;100.00
5238;BME280;2639;49.700;7.962;2023-06-22T03:17:40;98792.25;;;20.43;100.00
5238;BME280;2639;49.700;7.962;2023-06-22T03:18:45;98787.03;;;20.43;100.00
5238;BME280;2639;49.700;7.962;2023-06-22T03:19:47;98787.91;;;20.44;100.00
5238;BME280;2639;49.700;7.962;2023-06-22T03:20:50;98791.41;;;20.44;100.00
5238;BME280;2639;49.700;7.962;2023-06-22T03:21:52;98791.41;;;20.44;100.00
5238;BME280;2639;49.700;7.962;2023-06-22T03:22:55;98782.72;;;20.44;100.00
5238;BME280;2639;49.700;7.962;2023-06-22T03:23:57;98786.16;;;20.43;100.00
5238;BME280;2639;49.700;7.962;2023-06-22T03:25:00;98786.16;;;20.43;100.00
5238;BME280;2639;49.700;7.962;2023-06-22T03:26:02;98785.25;;;20.42;100.00
5238;BME280;2639;49.700;7.962;2023-06-22T03:27:05;98780.88;;;20.41;100.00
5238;BME280;2639;49.700;7.962;2023-06-22T03:28:08;98782.59;;;20.41;100.00
5238;BME280;2639;49.700;7.962;2023-06-22T03:29:11;98779.06;;;20.38;100.00
5238;BME280;2639;49.700;7.962;2023-06-22T03:30:13;98775.56;;;20.38;100.00
5238;BME280;2639;49.700;7.962;2023-06-22T03:31:16;98782.47;;;20.37;100.00
5238;BME280;2639;49.700;7.962;2023-06-22T03:32:23;98782.47;;;20.37;100.00
5238;BME280;2639;49.700;7.962;2023-06-22T03:33:29;98782.44;;;20.36;100.00
5238;BME280;2639;49.700;7.962;2023-06-22T03:34:34;98778.03;;;20.35;100.00
5238;BME280;2639;49.700;7.962;2023-06-22T03:35:38;98780.72;;;20.36;100.00
5238;BME280;2639;49.700;7.962;2023-06-22T03:36:40;98778.03;;;20.35;100.00
5238;BME280;2639;49.700;7.962;2023-06-22T03:37:44;98782.38;;;20.34;100.00
5238;BME280;2639;49.700;7.962;2023-06-22T03:38:46;98786.72;;;20.34;100.00
5238;BME280;2639;49.700;7.962;2023-06-22T03:39:50;98782.31;;;20.33;100.00
5238;BME280;2639;49.700;7.962;2023-06-22T03:40:52;98778.81;;;20.32;100.00
5238;BME280;2639;49.700;7.962;2023-06-22T03:41:55;98781.41;;;20.32;100.00
5238;BME280;2639;49.700;7.962;2023-06-22T03:42:58;98789.25;;;20.32;100.00
5238;BME280;2639;49.700;7.962;2023-06-22T03:44:03;98794.38;;;20.29;100.00
5238;BME280;2639;49.700;7.962;2023-06-22T03:45:06;98791.75;;;20.29;100.00
5238;BME280;2639;49.700;7.962;2023-06-22T03:46:09;98801.22;;;20.27;100.00
5238;BME280;2639;49.700;7.962;2023-06-22T03:47:12;98799.47;;;20.26;100.00
5238;BME280;2639;49.700;7.962;2023-06-22T03:48:15;98799.34;;;20.23;100.00
5238;BME280;2639;49.700;7.962;2023-06-22T03:49:17;98794.09;;;20.22;100.00
5238;BME280;2639;49.700;7.962;2023-06-22T03:50:21;98796.69;;;20.22;100.00
5238;BME280;2639;49.700;7.962;2023-06-22T03:51:23;98794.91;;;20.21;100.00
5238;BME280;2639;49.700;7.962;2023-06-22T03:52:26;98797.50;;;20.21;100.00
5238;BME280;2639;49.700;7.962;2023-06-22T03:53:28;98800.13;;;20.21;100.00
5238;BME280;2639;49.700;7.962;2023-06-22T03:54:31;98797.47;;;20.19;100.00
5238;BME280;2639;49.700;7.962;2023-06-22T03:55:33;98794.91;;;20.21;100.00
5238;BME280;2639;49.700;7.962;2023-06-22T03:56:36;98794.91;;;20.21;100.00
5238;BME280;2639;49.700;7.962;2023-06-22T03:57:38;98787.03;;;20.19;100.00
5238;BME280;2639;49.700;7.962;2023-06-22T03:58:41;98795.78;;;20.21;100.00
5238;BME280;2639;49.700;7.962;2023-06-22T03:59:46;98790.56;;;20.21;100.00
5238;BME280;2639;49.700;7.962;2023-06-22T04:00:50;98801.00;;;20.21;100.00
5238;BME280;2639;49.700;7.962;2023-06-22T04:01:53;98791.41;;;20.20;100.00
5238;BME280;2639;49.700;7.962;2023-06-22T04:02:56;98799.22;;;20.20;100.00
5238;BME280;2639;49.700;7.962;2023-06-22T04:03:58;98797.50;;;20.21;100.00
5238;BME280;2639;49.700;7.962;2023-06-22T04:05:01;98802.69;;;20.19;100.00
5238;BME280;2639;49.700;7.962;2023-06-22T04:06:07;98801.72;;;20.17;100.00
5238;BME280;2639;49.700;7.962;2023-06-22T04:07:10;98795.56;;;20.15;100.00
5238;BME280;2639;49.700;7.962;2023-06-22T04:08:12;98806.00;;;20.15;100.00
5238;BME280;2639;49.700;7.962;2023-06-22T04:09:15;98804.22;;;20.14;100.00
5238;BME280;2639;49.700;7.962;2023-06-22T04:10:17;98804.22;;;20.14;100.00
5238;BME280;2639;49.700;7.962;2023-06-22T04:11:20;98802.44;;;20.13;100.00
5238;BME280;2639;49.700;7.962;2023-06-22T04:12:22;98803.25;;;20.12;100.00
5238;BME280;2639;49.700;7.962;2023-06-22T04:13:25;98802.34;;;20.10;100.00
5238;BME280;2639;49.700;7.962;2023-06-22T04:14:27;98797.94;;;20.09;100.00
5238;BME280;2639;49.700;7.962;2023-06-22T04:15:30;98797.88;;;20.07;100.00
5238;BME280;2639;49.700;7.962;2023-06-22T04:16:32;98800.53;;;20.09;100.00
5238;BME280;2639;49.700;7.962;2023-06-22T04:17:35;98795.31;;;20.09;100.00
5238;BME280;2639;49.700;7.962;2023-06-22T04:18:37;98796.19;;;20.08;100.00
5238;BME280;2639;49.700;7.962;2023-06-22T04:19:40;98794.38;;;20.07;100.00
5238;BME280;2639;49.700;7.962;2023-06-22T04:20:43;98796.09;;;20.06;100.00
5238;BME280;2639;49.700;7.962;2023-06-22T04:21:49;98800.44;;;20.06;100.00
5238;BME280;2639;49.700;7.962;2023-06-22T04:22:52;98802.19;;;20.07;100.00
5238;BME280;2639;49.700;7.962;2023-06-22T04:23:55;98803.94;;;20.06;100.00
5238;BME280;2639;49.700;7.962;2023-06-22T04:24:58;98799.56;;;20.05;100.00
5238;BME280;2639;49.700;7.962;2023-06-22T04:26:00;98795.22;;;20.06;100.00
5238;BME280;2639;49.700;7.962;2023-06-22T04:27:03;98800.44;;;20.06;100.00
5238;BME280;2639;49.700;7.962;2023-06-22T04:28:05;98799.56;;;20.05;100.00
5238;BME280;2639;49.700;7.962;2023-06-22T04:29:14;98794.34;;;20.05;100.00
5238;BME280;2639;49.700;7.962;2023-06-22T04:30:16;98791.75;;;20.05;100.00
5238;BME280;2639;49.700;7.962;2023-06-22T04:31:19;98794.38;;;20.07;100.00
5238;BME280;2639;49.700;7.962;2023-06-22T04:32:21;98800.47;;;20.07;100.00
5238;BME280;2639;49.700;7.962;2023-06-22T04:33:24;98803.84;;;20.05;100.00
5238;BME280;2639;49.700;7.962;2023-06-22T04:34:26;98802.09;;;20.04;100.00
5238;BME280;2639;49.700;7.962;2023-06-22T04:35:29;98802.09;;;20.04;100.00
5238;BME280;2639;49.700;7.962;2023-06-22T04:36:31;98803.75;;;20.02;100.00
5238;BME280;2639;49.700;7.962;2023-06-22T04:37:40;98794.97;;;20.00;100.00
5238;BME280;2639;49.700;7.962;2023-06-22T04:38:43;98796.63;;;19.97;100.00
5238;BME280;2639;49.700;7.962;2023-06-22T04:39:46;98793.94;;;19.94;100.00
5238;BME280;2639;49.700;7.962;2023-06-22T04:40:49;98795.56;;;19.92;100.00
5238;BME280;2639;49.700;7.962;2023-06-22T04:41:51;98798.19;;;19.92;100.00
5238;BME280;2639;49.700;7.962;2023-06-22T04:42:54;98797.34;;;19.93;100.00
5238;BME280;2639;49.700;7.962;2023-06-22T04:43:56;98803.50;;;19.95;100.00
5238;BME280;2639;49.700;7.962;2023-06-22T04:45:02;98794.88;;;19.96;100.00
5238;BME280;2639;49.700;7.962;2023-06-22T04:46:05;98801.84;;;19.97;100.00
5238;BME280;2639;49.700;7.962;2023-06-22T04:47:07;98804.53;;;19.99;100.00
5238;BME280;2639;49.700;7.962;2023-06-22T04:48:10;98803.69;;;20.00;100.00
5238;BME280;2639;49.700;7.962;2023-06-22T04:49:18;98804.59;;;20.01;100.00
5238;BME280;2639;49.700;7.962;2023-06-22T04:50:21;98794.16;;;20.01;100.00
5238;BME280;2639;49.700;7.962;2023-06-22T04:51:25;98795.09;;;20.03;100.00
5238;BME280;2639;49.700;7.962;2023-06-22T04:52:32;98791.66;;;20.04;100.00
5238;BME280;2639;49.700;7.962;2023-06-22T04:53:36;98784.81;;;20.06;100.00
5238;BME280;2639;49.700;7.962;2023-06-22T04:54:39;98794.44;;;20.08;100.00
5238;BME280;2639;49.700;7.962;2023-06-22T04:55:49;98788.34;;;20.08;100.00
5238;BME280;2639;49.700;7.962;2023-06-22T04:56:54;98788.34;;;20.08;100.00
5238;BME280;2639;49.700;7.962;2023-06-22T04:57:58;98784.91;;;20.09;100.00
5238;BME280;2639;49.700;7.962;2023-06-22T04:59:06;98790.22;;;20.12;100.00
5238;BME280;2639;49.700;7.962;2023-06-22T05:00:09;98779.94;;;20.15;100.00
5238;BME280;2639;49.700;7.962;2023-06-22T07:16:15;98716.06;;;23.92;100.00
5238;BME280;2639;49.700;7.962;2023-06-22T07:17:18;98719.78;;;24.03;100.00
5238;BME280;2639;49.700;7.962;2023-06-22T07:18:21;98718.22;;;24.11;100.00
5238;BME280;2639;49.700;7.962;2023-06-22T07:19:27;98714.78;;;24.15;100.00
5238;BME280;2639;49.700;7.962;2023-06-22T07:20:29;98717.47;;;24.17;99.56
5238;BME280;2639;49.700;7.962;2023-06-22T07:21:32;98714.97;;;24.25;100.00
5238;BME280;2639;49.700;7.962;2023-06-22T07:22:35;98708.16;;;24.33;100.00
5238;BME280;2639;49.700;7.962;2023-06-22T07:23:38;98714.38;;;24.38;100.00
5238;BME280;2639;49.700;7.962;2023-06-22T07:24:40;98713.56;;;24.42;100.00
5238;BME280;2639;49.700;7.962;2023-06-22T07:25:44;98713.63;;;24.45;99.87
5238;BME280;2639;49.700;7.962;2023-06-22T07:26:47;98711.06;;;24.48;99.02
5238;BME280;2639;49.700;7.962;2023-06-22T07:27:57;98711.06;;;24.48;98.72
5238;BME280;2639;49.700;7.962;2023-06-22T07:29:01;98710.16;;;24.46;97.11
5238;BME280;2639;49.700;7.962;2023-06-22T07:30:03;98713.69;;;24.48;96.96
5238;BME280;2639;49.700;7.962;2023-06-22T07:31:06;98710.44;;;24.62;97.85
5238;BME280;2639;49.700;7.962;2023-06-22T07:32:10;98712.28;;;24.66;97.02
5238;BME280;2639;49.700;7.962;2023-06-22T07:33:13;98710.63;;;24.71;95.97
5238;BME280;2639;49.700;7.962;2023-06-22T07:34:15;98718.44;;;24.68;93.28
5238;BME280;2639;49.700;7.962;2023-06-22T07:35:18;98715.88;;;24.71;94.47
5238;BME280;2639;49.700;7.962;2023-06-22T07:36:20;98710.63;;;24.71;91.86
5238;BME280;2639;49.700;7.962;2023-06-22T07:37:23;98709.88;;;24.78;91.14
5238;BME280;2639;49.700;7.962;2023-06-22T07:38:25;98708.19;;;24.82;91.09
5238;BME280;2639;49.700;7.962;2023-06-22T07:39:28;98709.22;;;24.91;91.38
5238;BME280;2639;49.700;7.962;2023-06-22T07:40:30;98710.25;;;24.99;91.57
5238;BME280;2639;49.700;7.962;2023-06-22T07:41:33;98715.59;;;25.04;90.25
5238;BME280;2639;49.700;7.962;2023-06-22T07:42:35;98718.38;;;25.15;90.18
5238;BME280;2639;49.700;7.962;2023-06-22T07:43:38;98719.34;;;25.18;89.84
5238;BME280;2639;49.700;7.962;2023-06-22T07:44:40;98704.50;;;25.22;89.32
5238;BME280;2639;49.700;7.962;2023-06-22T07:45:48;98711.56;;;25.26;87.95
5238;BME280;2639;49.700;7.962;2023-06-22T07:46:53;98701.06;;;25.26;88.33
5238;BME280;2639;49.700;7.962;2023-06-22T07:48:00;98699.38;;;25.31;86.95
5238;BME280;2639;49.700;7.962;2023-06-22T07:49:02;98701.16;;;25.34;86.35
5238;BME280;2639;49.700;7.962;2023-06-22T07:50:06;98698.41;;;25.25;84.80
5238;BME280;2639;49.700;7.962;2023-06-22T07:51:09;98693.22;;;25.29;85.23
5238;BME280;2639;49.700;7.962;2023-06-22T07:52:11;98693.16;;;25.26;84.94
5238;BME280;2639;49.700;7.962;2023-06-22T07:53:14;98687.03;;;25.27;83.95
5238;BME280;2639;49.700;7.962;2023-06-22T07:54:17;98695.03;;;25.33;84.34
5238;BME280;2639;49.700;7.962;2023-06-22T07:55:19;98703.00;;;25.39;84.46
5238;BME280;2639;49.700;7.962;2023-06-22T07:56:22;98698.56;;;25.35;81.42
5238;BME280;2639;49.700;7.962;2023-06-22T07:57:24;98700.34;;;25.38;82.94
5238;BME280;2639;49.700;7.962;2023-06-22T07:58:34;98693.34;;;25.38;82.84
5238;BME280;2639;49.700;7.962;2023-06-22T07:59:37;98696.03;;;25.42;82.10
5238;BME280;2639;49.700;7.962;2023-06-22T08:00:40;98685.47;;;25.38;81.68
5238;BME280;2639;49.700;7.962;2023-06-22T08:01:43;98686.44;;;25.44;83.43
5238;BME280;2639;49.700;7.962;2023-06-22T08:02:46;98684.75;;;25.49;83.89
5238;BME280;2639;49.700;7.962;2023-06-22T08:03:50;98676.84;;;25.49;83.08
5238;BME280;2639;49.700;7.962;2023-06-22T08:04:53;98680.38;;;25.49;81.72
5238;BME280;2639;49.700;7.962;2023-06-22T08:06:11;98676.78;;;25.46;82.18
5238;BME280;2639;49.700;7.962;2023-06-22T08:07:14;98680.41;;;25.51;83.43
5238;BME280;2639;49.700;7.962;2023-06-22T08:08:16;98675.16;;;25.54;82.75
5238;BME280;2639;49.700;7.962;2023-06-22T08:09:19;98677.81;;;25.55;81.91
5238;BME280;2639;49.700;7.962;2023-06-22T08:10:21;98673.50;;;25.60;81.51
5238;BME280;2639;49.700;7.962;2023-06-22T08:11:24;98677.09;;;25.67;81.17
5238;BME280;2639;49.700;7.962;2023-06-22T08:12:27;98677.13;;;25.70;78.90
5238;BME280;2639;49.700;7.962;2023-06-22T08:13:29;98677.16;;;25.73;80.50
5238;BME280;2639;49.700;7.962;2023-06-22T08:14:32;98670.19;;;25.75;80.24
5238;BME280;2639;49.700;7.962;2023-06-22T08:15:34;98665.84;;;25.80;81.35
5238;BME280;2639;49.700;7.962;2023-06-22T08:16:37;98660.75;;;25.88;80.46
5238;BME280;2639;49.700;7.962;2023-06-22T08:17:39;98659.91;;;25.91;79.78
5238;BME280;2639;49.700;7.962;2023-06-22T08:18:42;98661.66;;;25.92;80.58
5238;BME280;2639;49.700;7.962;2023-06-22T08:19:46;98657.25;;;25.91;79.06
5238;BME280;2639;49.700;7.962;2023-06-22T08:20:49;98658.09;;;25.87;78.55
5238;BME280;2639;49.700;7.962;2023-06-22T08:21:51;98655.38;;;25.85;78.92
5238;BME280;2639;49.700;7.962;2023-06-22T08:22:55;98661.47;;;25.79;78.22
5238;BME280;2639;49.700;7.962;2023-06-22T08:23:57;98653.53;;;25.75;77.43
5238;BME280;2639;49.700;7.962;2023-06-22T08:25:00;98645.59;;;25.73;77.59
5238;BME280;2639;49.700;7.962;2023-06-22T08:26:02;98648.22;;;25.73;76.96
5238;BME280;2639;49.700;7.962;2023-06-22T08:27:07;98648.34;;;25.82;78.08
5238;BME280;2639;49.700;7.962;2023-06-22T08:28:10;98655.50;;;25.91;78.74
5238;BME280;2639;49.700;7.962;2023-06-22T08:29:14;98656.50;;;26.01;78.78
5238;BME280;2639;49.700;7.962;2023-06-22T08:30:18;98651.31;;;26.07;77.13
5238;BME280;2639;49.700;7.962;2023-06-22T08:31:21;98654.84;;;26.09;76.02
5238;BME280;2639;49.700;7.962;2023-06-22T08:32:24;98649.59;;;26.12;75.47
5238;BME280;2639;49.700;7.962;2023-06-22T08:33:28;98642.66;;;26.19;75.73
5238;BME280;2639;49.700;7.962;2023-06-22T08:34:32;98639.25;;;26.28;75.53
5238;BME280;2639;49.700;7.962;2023-06-22T08:35:35;98634.88;;;26.30;75.41
5238;BME280;2639;49.700;7.962;2023-06-22T08:36:38;98646.38;;;26.38;75.02
5238;BME280;2639;49.700;7.962;2023-06-22T08:37:43;98642.06;;;26.46;74.83
5238;BME280;2639;49.700;7.962;2023-06-22T08:38:52;98639.47;;;26.51;72.70
5238;BME280;2639;49.700;7.962;2023-06-22T08:39:55;98636.91;;;26.57;72.51
5238;BME280;2639;49.700;7.962;2023-06-22T08:40:57;98644.03;;;26.67;73.81
5238;BME280;2639;49.700;7.962;2023-06-22T08:42:01;98643.19;;;26.73;73.42
5238;BME280;2639;49.700;7.962;2023-06-22T08:43:03;98645.06;;;26.83;74.03
5238;BME280;2639;49.700;7.962;2023-06-22T08:44:06;98645.97;;;26.90;71.67
5238;BME280;2639;49.700;7.962;2023-06-22T08:45:09;98638.09;;;26.93;71.78
5238;BME280;2639;49.700;7.962;2023-06-22T08:46:12;98638.13;;;26.97;72.24
5238;BME280;2639;49.700;7.962;2023-06-22T08:47:15;98636.41;;;27.02;72.75
5238;BME280;2639;49.700;7.962;2023-06-22T08:48:17;98632.06;;;27.11;71.77
5238;BME280;2639;49.700;7.962;2023-06-22T08:49:20;98628.66;;;27.21;71.41
5238;BME280;2639;49.700;7.962;2023-06-22T08:50:22;98640.16;;;27.32;72.13
5238;BME280;2639;49.700;7.962;2023-06-22T08:51:26;98637.56;;;27.40;71.08
5238;BME280;2639;49.700;7.962;2023-06-22T08:52:30;98629.66;;;27.44;67.88
5238;BME280;2639;49.700;7.962;2023-06-22T08:53:33;98636.72;;;27.55;68.76
5238;BME280;2639;49.700;7.962;2023-06-22T08:54:36;98635.91;;;27.62;66.91
5238;BME280;2639;49.700;7.962;2023-06-22T08:55:38;98635.97;;;27.74;68.87
5238;BME280;2639;49.700;7.962;2023-06-22T08:56:41;98626.28;;;27.82;67.34
5238;BME280;2639;49.700;7.962;2023-06-22T08:57:47;98634.28;;;27.91;66.96
5238;BME280;2639;49.700;7.962;2023-06-22T08:58:50;98630.75;;;27.86;65.53
5238;BME280;2639;49.700;7.962;2023-06-22T08:59:52;98632.47;;;27.81;66.74
5238;BME280;2639;49.700;7.962;2023-06-22T09:00:55;98637.72;;;27.80;65.96
5238;BME280;2639;49.700;7.962;2023-06-22T09:01:58;98628.91;;;27.78;66.57
5238;BME280;2639;49.700;7.962;2023-06-22T09:03:00;98635.06;;;27.72;67.92
5238;BME280;2639;49.700;7.962;2023-06-22T09:04:03;98635.06;;;27.69;68.71
5238;BME280;2639;49.700;7.962;2023-06-22T09:05:08;98633.28;;;27.65;68.73
5238;BME280;2639;49.700;7.962;2023-06-22T09:06:10;98636.78;;;27.64;68.47
5238;BME280;2639;49.700;7.962;2023-06-22T09:07:16;98637.69;;;27.64;68.47
5238;BME280;2639;49.700;7.962;2023-06-22T09:08:24;98642.09;;;27.67;69.07
5238;BME280;2639;49.700;7.962;2023-06-22T09:09:27;98633.28;;;27.62;67.62
5238;BME280;2639;49.700;7.962;2023-06-22T09:10:29;98636.78;;;27.61;68.71
5238;BME280;2639;49.700;7.962;2023-06-22T09:11:32;98639.44;;;27.70;68.28
5238;BME280;2639;49.700;7.962;2023-06-22T09:12:34;98641.25;;;27.71;69.93
5238;BME280;2639;49.700;7.962;2023-06-22T09:13:39;98633.28;;;27.68;68.68
5238;BME280;2639;49.700;7.962;2023-06-22T09:14:42;98628.84;;;27.56;68.21
5238;BME280;2639;49.700;7.962;2023-06-22T09:15:44;98627.03;;;27.47;68.30
5238;BME280;2639;49.700;7.962;2023-06-22T09:16:47;98615.59;;;27.45;68.48
5238;BME280;2639;49.700;7.962;2023-06-22T09:17:49;98612.09;;;27.46;69.93
5238;BME280;2639;49.700;7.962;2023-06-22T09:18:55;98607.72;;;27.55;69.53
5238;BME280;2639;49.700;7.962;2023-06-22T09:19:57;98603.31;;;27.54;69.14
5238;BME280;2639;49.700;7.962;2023-06-22T09:21:01;98598.09;;;27.63;70.55
5238;BME280;2639;49.700;7.962;2023-06-22T09:22:03;98603.38;;;27.66;69.51
5238;BME280;2639;49.700;7.962;2023-06-22T09:23:09;98607.78;;;27.68;67.90
5238;BME280;2639;49.700;7.962;2023-06-22T09:24:11;98605.16;;;27.73;68.95
5238;BME280;2639;49.700;7.962;2023-06-22T09:25:13;98609.59;;;27.79;66.49
5238;BME280;2639;49.700;7.962;2023-06-22T09:26:16;98599.06;;;27.89;67.39
5238;BME280;2639;49.700;7.962;2023-06-22T09:27:18;98600.00;;;28.01;67.67
5238;BME280;2639;49.700;7.962;2023-06-22T09:28:21;98603.53;;;28.03;67.25
5238;BME280;2639;49.700;7.962;2023-06-22T09:29:24;98600.91;;;28.07;67.25
5238;BME280;2639;49.700;7.962;2023-06-22T09:30:26;98596.50;;;28.08;66.82
5238;BME280;2639;49.700;7.962;2023-06-22T09:31:29;98598.25;;;28.15;67.09
5238;BME280;2639;49.700;7.962;2023-06-22T09:32:32;98600.06;;;28.25;66.54
5238;BME280;2639;49.700;7.962;2023-06-22T09:33:35;98590.38;;;28.30;66.76
5238;BME280;2639;49.700;7.962;2023-06-22T09:34:39;98601.84;;;28.39;67.35
5238;BME280;2639;49.700;7.962;2023-06-22T09:35:41;98598.31;;;28.46;66.29
5238;BME280;2639;49.700;7.962;2023-06-22T09:36:44;98601.88;;;28.51;66.07
5238;BME280;2639;49.700;7.962;2023-06-22T09:37:48;98590.41;;;28.52;65.35
5238;BME280;2639;49.700;7.962;2023-06-22T09:38:55;98586.03;;;28.51;64.25
5238;BME280;2639;49.700;7.962;2023-06-22T09:39:57;98584.25;;;28.50;64.25
5238;BME280;2639;49.700;7.962;2023-06-22T09:41:00;98591.31;;;28.48;64.29
5238;BME280;2639;49.700;7.962;2023-06-22T09:42:04;98581.59;;;28.45;64.35
5238;BME280;2639;49.700;7.962;2023-06-22T09:43:08;98583.38;;;28.54;63.94
5238;BME280;2639;49.700;7.962;2023-06-22T09:44:11;98583.38;;;28.59;65.10
5238;BME280;2639;49.700;7.962;2023-06-22T09:45:13;98578.94;;;28.68;64.21
5238;BME280;2639;49.700;7.962;2023-06-22T09:46:16;98579.84;;;28.75;65.86
5238;BME280;2639;49.700;7.962;2023-06-22T09:47:19;98578.94;;;28.78;64.56
5238;BME280;2639;49.700;7.962;2023-06-22T09:48:22;98568.38;;;28.81;65.28
5238;BME280;2639;49.700;7.962;2023-06-22T09:49:25;98569.28;;;28.73;64.57
5238;BME280;2639;49.700;7.962;2023-06-22T09:50:47;98571.03;;;28.73;64.54
5238;BME280;2639;49.700;7.962;2023-06-22T09:51:51;98568.38;;;28.78;64.14
5238;BME280;2639;49.700;7.962;2023-06-22T09:52:54;98571.94;;;28.73;63.17
5238;BME280;2639;49.700;7.962;2023-06-22T09:53:58;98572.81;;;28.74;63.97
5238;BME280;2639;49.700;7.962;2023-06-22T09:55:01;98564.88;;;28.76;63.11
5238;BME280;2639;49.700;7.962;2023-06-22T09:56:05;98553.41;;;28.78;64.31
5238;BME280;2639;49.700;7.962;2023-06-22T09:57:08;98552.53;;;28.71;62.88
5238;BME280;2639;49.700;7.962;2023-06-22T09:58:10;98558.69;;;28.70;63.20
5238;BME280;2639;49.700;7.962;2023-06-22T09:59:13;98550.78;;;28.72;64.58
5238;BME280;2639;49.700;7.962;2023-06-22T10:00:19;98550.78;;;28.72;63.92
5238;BME280;2639;49.700;7.962;2023-06-22T10:01:23;98556.06;;;28.77;64.38
5238;BME280;2639;49.700;7.962;2023-06-22T10:02:26;98555.16;;;28.82;64.46
5238;BME280;2639;49.700;7.962;2023-06-22T10:03:29;98555.16;;;28.87;63.80
5238;BME280;2639;49.700;7.962;2023-06-22T10:04:33;98549.84;;;28.96;63.83
5238;BME280;2639;49.700;7.962;2023-06-22T10:05:36;98546.31;;;29.08;63.25
5238;BME280;2639;49.700;7.962;2023-06-22T10:06:39;98541.00;;;29.17;62.94
5238;BME280;2639;49.700;7.962;2023-06-22T10:07:42;98552.44;;;29.27;62.80
5238;BME280;2639;49.700;7.962;2023-06-22T10:08:46;98541.84;;;29.36;62.66
5238;BME280;2639;49.700;7.962;2023-06-22T10:09:51;98540.88;;;29.49;62.36
5238;BME280;2639;49.700;7.962;2023-06-22T10:10:54;98532.91;;;29.55;61.39
5238;BME280;2639;49.700;7.962;2023-06-22T10:11:57;98531.09;;;29.64;61.58
5238;BME280;2639;49.700;7.962;2023-06-22T10:13:08;98530.19;;;29.78;61.45
5238;BME280;2639;49.700;7.962;2023-06-22T10:14:11;98532.78;;;29.89;61.57
5238;BME280;2639;49.700;7.962;2023-06-22T10:15:15;98534.44;;;30.03;59.93
5238;BME280;2639;49.700;7.962;2023-06-22T10:16:17;98523.78;;;30.09;60.31
5238;BME280;2639;49.700;7.962;2023-06-22T10:17:20;98529.03;;;30.18;61.46
5238;BME280;2639;49.700;7.962;2023-06-22T10:18:22;98529.03;;;30.18;58.68
5238;BME280;2639;49.700;7.962;2023-06-22T10:19:25;98526.34;;;30.21;59.15
5238;BME280;2639;49.700;7.962;2023-06-22T10:20:27;98524.66;;;30.11;57.76
5238;BME280;2639;49.700;7.962;2023-06-22T10:21:30;98522.06;;;30.06;59.08
5238;BME280;2639;49.700;7.962;2023-06-22T10:22:34;98527.31;;;30.08;58.11
5238;BME280;2639;49.700;7.962;2023-06-22T10:23:36;98514.97;;;30.07;59.10
5238;BME280;2639;49.700;7.962;2023-06-22T10:24:39;98514.06;;;30.08;58.85
5238;BME280;2639;49.700;7.962;2023-06-22T10:25:48;98513.16;;;30.12;60.08
5238;BME280;2639;49.700;7.962;2023-06-22T10:26:51;98500.84;;;30.11;58.77
5238;BME280;2639;49.700;7.962;2023-06-22T10:27:54;98500.84;;;30.08;58.17
5238;BME280;2639;49.700;7.962;2023-06-22T10:28:57;98506.09;;;30.12;59.59
5238;BME280;2639;49.700;7.962;2023-06-22T10:30:16;98506.03;;;30.25;59.02
5238;BME280;2639;49.700;7.962;2023-06-22T10:31:19;98500.66;;;30.35;58.40
5238;BME280;2639;49.700;7.962;2023-06-22T10:32:22;98498.81;;;30.45;58.98
5238;BME280;2639;49.700;7.962;2023-06-22T10:33:25;98503.16;;;30.49;57.81
5238;BME280;2639;49.700;7.962;2023-06-22T10:34:28;98496.03;;;30.56;57.59
5238;BME280;2639;49.700;7.962;2023-06-22T10:35:30;98499.50;;;30.64;57.96
5238;BME280;2639;49.700;7.962;2023-06-22T10:36:33;98499.47;;;30.69;56.64
5238;BME280;2639;49.700;7.962;2023-06-22T10:37:35;98492.44;;;30.63;56.19
5238;BME280;2639;49.700;7.962;2023-06-22T10:38:39;98487.06;;;30.71;57.12
5238;BME280;2639;49.700;7.962;2023-06-22T10:39:41;98497.69;;;30.71;57.39
5238;BME280;2639;49.700;7.962;2023-06-22T10:40:47;98488.00;;;30.67;57.26
5238;BME280;2639;49.700;7.962;2023-06-22T10:41:49;98491.59;;;30.58;57.27
5238;BME280;2639;49.700;7.962;2023-06-22T10:42:51;98493.38;;;30.56;57.82
5238;BME280;2639;49.700;7.962;2023-06-22T10:43:54;98487.22;;;30.55;59.03
5238;BME280;2639;49.700;7.962;2023-06-22T10:44:57;98482.88;;;30.48;58.04
5238;BME280;2639;49.700;7.962;2023-06-22T10:46:00;98475.84;;;30.44;57.44
5238;BME280;2639;49.700;7.962;2023-06-22T10:47:03;98490.00;;;30.41;57.96
5238;BME280;2639;49.700;7.962;2023-06-22T10:48:05;98481.09;;;30.47;58.85
5238;BME280;2639;49.700;7.962;2023-06-22T10:49:08;98482.78;;;30.57;58.06
5238;BME280;2639;49.700;7.962;2023-06-22T10:50:11;98477.41;;;30.65;59.07
5238;BME280;2639;49.700;7.962;2023-06-22T10:51:13;98479.19;;;30.63;58.41
5238;BME280;2639;49.700;7.962;2023-06-22T10:52:16;98485.31;;;30.70;58.17
5238;BME280;2639;49.700;7.962;2023-06-22T10:53:19;98480.84;;;30.73;57.52
5238;BME280;2639;49.700;7.962;2023-06-22T10:54:22;98479.91;;;30.79;57.93
5238;BME280;2639;49.700;7.962;2023-06-22T10:55:23;98478.97;;;30.81;57.16
5238;BME280;2639;49.700;7.962;2023-06-22T10:56:28;98470.16;;;30.84;57.29
5238;BME280;2639;49.700;7.962;2023-06-22T10:57:31;98471.94;;;30.80;56.47
5238;BME280;2639;49.700;7.962;2023-06-22T10:58:33;98473.69;;;30.81;58.04
5238;BME280;2639;49.700;7.962;2023-06-22T10:59:36;98470.09;;;30.92;58.31
5238;BME280;2639;49.700;7.962;2023-06-22T11:00:39;98469.22;;;30.88;57.46